Time;durP1;ratioP1;P1;durP2;ratioP2;P2;SDS_P1;SDS_P2;PMS_P1;PMS_P2;Temp;Humidity;BMP_temperature;BMP_pressure;BME280_temperature;BME280_humidity;BME280_pressure;Samples;Min_cycle;Max_cycle;Signal;HPM_P1;HPM_P2
2023/09/07 00:00:24;;;;;;;;;;;;;;;15.67;100.00;96038.94;10431647;28;1417;-77
2023/09/07 00:05:27;;;;;;;;;;;;;;;15.68;100.00;96040.56;10447786;28;976;-79
2023/09/07 00:10:30;;;;;;;;;;;;;;;15.57;100.00;96036.38;10431845;28;1381;-79
2023/09/07 00:15:38;;;;;;;;;;;;;;;15.59;100.00;96036.91;10433567;28;1923;-79
2023/09/07 00:20:47;;;;;;;;;;;;;;;15.49;100.00;96028.94;10435942;28;1094;-79
2023/09/07 00:25:52;;;;;;;;;;;;;;;15.42;100.00;96025.84;10432084;28;1456;-79
2023/09/07 00:30:55;;;;;;;;;;;;;;;15.44;100.00;96026.31;10434250;28;1384;-79
2023/09/07 00:36:01;;;;;;;;;;;;;;;15.34;100.00;96021.91;10424092;28;1964;-79
2023/09/07 00:41:04;;;;;;;;;;;;;;;15.27;100.00;96018.78;10426950;28;2441;-79
2023/09/07 00:46:10;;;;;;;;;;;;;;;15.23;100.00;96016.97;10424308;28;1504;-78
2023/09/07 00:51:18;;;;;;;;;;;;;;;15.17;100.00;96028.97;10427384;28;1446;-79
2023/09/07 00:56:23;;;;;;;;;;;;;;;15.05;100.00;96032.94;10434670;28;5082;-79
2023/09/07 01:01:30;;;;;;;;;;;;;;;15.02;100.00;96036.25;10428996;28;1616;-78
2023/09/07 01:06:36;;;;;;;;;;;;;;;14.95;100.00;96026.88;10436423;28;1111;-78
2023/09/07 01:11:45;;;;;;;;;;;;;;;15.00;100.00;96024.91;10410998;28;2001;-80
2023/09/07 01:16:49;;;;;;;;;;;;;;;14.89;100.00;96031.59;10429859;28;1607;-77
2023/09/07 01:21:56;;;;;;;;;;;;;;;14.84;100.00;96024.34;10418396;28;1152;-77
2023/09/07 01:27:03;;;;;;;;;;;;;;;14.73;100.00;96020.19;10408365;28;1539;-80
2023/09/07 01:32:09;;;;;;;;;;;;;;;14.65;100.00;96020.84;10426051;28;1914;-79
2023/09/07 01:37:19;;;;;;;;;;;;;;;14.65;100.00;96022.75;10433168;28;2367;-77
2023/09/07 01:42:28;;;;;;;;;;;;;;;14.69;100.00;96016.44;10421034;28;1595;-79
2023/09/07 01:47:36;;;;;;;;;;;;;;;14.79;100.00;96021.72;10416679;28;1588;-78
2023/09/07 01:52:40;;;;;;;;;;;;;;;14.81;100.00;96013.28;10438885;28;5090;-78
2023/09/07 01:57:45;;;;;;;;;;;;;;;14.71;100.00;96016.16;10426993;28;1664;-78
2023/09/07 02:02:50;;;;;;;;;;;;;;;14.63;100.00;96014.09;10423816;28;1497;-78
2023/09/07 02:07:54;;;;;;;;;;;;;;;14.55;100.00;96021.78;10418616;28;1723;-77
2023/09/07 02:12:59;;;;;;;;;;;;;;;14.56;100.00;96020.69;10432347;28;1906;-78
2023/09/07 02:18:05;;;;;;;;;;;;;;;14.59;100.00;96017.41;10422873;28;1760;-79
2023/09/07 02:23:14;;;;;;;;;;;;;;;14.47;100.00;96022.44;10432801;28;1035;-78
2023/09/07 02:28:25;;;;;;;;;;;;;;;14.43;100.00;96026.78;10432744;28;1566;-79
2023/09/07 02:33:33;;;;;;;;;;;;;;;14.35;100.00;96027.47;10432906;28;2478;-79
2023/09/07 02:38:37;;;;;;;;;;;;;;;14.19;100.00;96031.47;10431096;28;1552;-78
2023/09/07 02:43:40;;;;;;;;;;;;;;;14.16;100.00;96027.44;10425010;28;1660;-79
2023/09/07 02:48:50;;;;;;;;;;;;;;;14.14;100.00;96021.53;10427961;28;1533;-78
2023/09/07 02:53:57;;;;;;;;;;;;;;;14.17;100.00;96031.75;10424577;28;5074;-78
2023/09/07 02:59:04;;;;;;;;;;;;;;;14.07;100.00;96029.97;10418649;28;1543;-81
2023/09/07 03:04:08;;;;;;;;;;;;;;;14.05;100.00;96034.06;10414250;28;1525;-78
2023/09/07 03:09:15;;;;;;;;;;;;;;;14.05;100.00;96029.44;10422866;28;1474;-78
2023/09/07 03:14:22;;;;;;;;;;;;;;;14.12;100.00;96026.38;10437611;28;1906;-77
2023/09/07 03:19:32;;;;;;;;;;;;;;;14.03;100.00;96034.34;10431220;28;1501;-77
2023/09/07 03:24:37;;;;;;;;;;;;;;;13.98;100.00;96029.00;10428739;28;1461;-79
2023/09/07 03:29:42;;;;;;;;;;;;;;;13.81;100.00;96036.78;10440885;28;1135;-79
2023/09/07 03:34:49;;;;;;;;;;;;;;;13.65;100.00;96035.31;10454283;28;6533;-78
2023/09/07 03:39:54;;;;;;;;;;;;;;;13.65;100.00;96032.63;10416118;28;5296;-78
2023/09/07 03:45:00;;;;;;;;;;;;;;;13.59;100.00;96036.47;10430839;28;2738;-79
2023/09/07 03:50:06;;;;;;;;;;;;;;;13.62;100.00;96041.31;10434196;28;5300;-78
2023/09/07 03:55:13;;;;;;;;;;;;;;;13.58;100.00;96045.66;10438716;28;1890;-77
2023/09/07 04:00:18;;;;;;;;;;;;;;;13.55;100.00;96040.81;10435648;28;1229;-79
2023/09/07 04:05:26;;;;;;;;;;;;;;;13.49;100.00;96040.91;10461276;28;1360;-79
2023/09/07 04:10:31;;;;;;;;;;;;;;;13.61;100.00;96040.47;10472321;28;5436;-79
2023/09/07 04:15:45;;;;;;;;;;;;;;;13.39;100.00;96056.38;10462882;28;1918;-79
2023/09/07 04:20:54;;;;;;;;;;;;;;;13.13;100.00;96050.38;10451502;28;1454;-79
2023/09/07 04:26:01;;;;;;;;;;;;;;;12.94;100.00;96051.06;10494971;28;1358;-79
2023/09/07 04:31:06;;;;;;;;;;;;;;;12.85;100.00;96055.44;10472213;28;1052;-78
2023/09/07 04:36:15;;;;;;;;;;;;;;;12.76;100.00;96051.72;10471145;28;1914;-78
2023/09/07 04:41:28;;;;;;;;;;;;;;;12.88;100.00;96062.97;10482032;28;6347;-78
2023/09/07 04:46:32;;;;;;;;;;;;;;;12.85;100.00;96058.16;10466314;28;1603;-77
2023/09/07 04:51:39;;;;;;;;;;;;;;;12.80;100.00;96063.56;10443879;28;969;-79
2023/09/07 04:56:43;;;;;;;;;;;;;;;12.84;100.00;96059.22;10478775;28;1914;-78
2023/09/07 05:01:46;;;;;;;;;;;;;;;13.21;100.00;96057.88;10481043;28;1401;-78
2023/09/07 05:06:53;;;;;;;;;;;;;;;13.60;100.00;96065.88;10473759;28;1242;-77
2023/09/07 05:11:57;;;;;;;;;;;;;;;13.88;100.00;96061.56;10424648;28;1623375;-77
2023/09/07 05:17:04;;;;;;;;;;;;;;;14.17;100.00;96064.19;10469923;28;1910;-79
2023/09/07 05:22:15;;;;;;;;;;;;;;;14.30;100.00;96057.25;10482925;28;1157;-80
2023/09/07 05:27:30;;;;;;;;;;;;;;;14.54;100.00;96055.34;10483955;28;1496;-78
2023/09/07 05:32:33;;;;;;;;;;;;;;;15.02;100.00;96063.31;10484629;28;1910;-79
2023/09/07 05:37:37;;;;;;;;;;;;;;;15.38;100.00;96054.59;10464400;28;2605;-78
2023/09/07 05:42:43;;;;;;;;;;;;;;;15.65;100.00;96052.00;10465381;28;5112;-77
2023/09/07 05:47:51;;;;;;;;;;;;;;;15.83;100.00;96054.91;10470662;28;1408;-77
2023/09/07 05:53:10;;;;;;;;;;;;;;;15.75;100.00;96061.03;10455092;28;1906;-78
2023/09/07 05:58:22;;;;;;;;;;;;;;;15.83;100.00;96054.91;10484026;28;1385;-78
2023/09/07 06:03:26;;;;;;;;;;;;;;;15.88;100.00;96069.19;10490685;28;1412;-76
2023/09/07 06:08:38;;;;;;;;;;;;;;;15.83;100.00;96071.19;10482596;28;1070;-78
2023/09/07 06:13:45;;;;;;;;;;;;;;;16.03;100.00;96076.25;10460802;28;1979;-79
2023/09/07 06:18:52;;;;;;;;;;;;;;;16.16;100.00;96064.59;10487105;28;1330;-79
2023/09/07 06:23:57;;;;;;;;;;;;;;;16.21;100.00;96067.19;10482658;28;1453;-79
2023/09/07 06:29:07;;;;;;;;;;;;;;;16.29;100.00;96068.41;10481478;28;1175;-80
2023/09/07 06:34:12;;;;;;;;;;;;;;;16.36;100.00;96063.38;10477283;28;2653;-78
2023/09/07 06:39:17;;;;;;;;;;;;;;;16.67;100.00;96060.81;10437567;28;1484;-78
2023/09/07 06:44:29;;;;;;;;;;;;;;;16.92;100.00;96056.75;10469993;28;1626;-79
2023/09/07 06:49:47;;;;;;;;;;;;;;;16.65;100.00;96065.72;10459783;28;1450;-78
2023/09/07 06:54:54;;;;;;;;;;;;;;;16.94;100.00;96061.88;10461150;28;1902;-80
2023/09/07 07:00:01;;;;;;;;;;;;;;;17.22;100.00;96059.84;10473914;28;1353;-80
2023/09/07 07:05:04;;;;;;;;;;;;;;;17.38;100.00;96065.72;10479049;28;1357;-80
2023/09/07 07:10:14;;;;;;;;;;;;;;;17.32;100.00;96054.16;10474009;28;1163;-78
2023/09/07 07:15:20;;;;;;;;;;;;;;;17.54;100.00;96062.28;10454534;28;1918;-79
2023/09/07 07:20:26;;;;;;;;;;;;;;;17.92;100.00;96069.22;10476359;28;1385;-80
2023/09/07 07:25:36;;;;;;;;;;;;;;;17.94;100.00;96067.00;10473572;28;1390;-78
2023/09/07 07:30:41;;;;;;;;;;;;;;;18.23;100.00;96070.00;10466924;28;2341;-79
2023/09/07 07:35:51;;;;;;;;;;;;;;;18.73;100.00;96072.41;10467446;28;1984;-78
2023/09/07 07:40:57;;;;;;;;;;;;;;;19.07;100.00;96065.38;10465695;28;5030;-79
2023/09/07 07:46:01;;;;;;;;;;;;;;;19.14;100.00;96069.22;10483955;28;1076;-79
2023/09/07 07:51:12;;;;;;;;;;;;;;;19.36;100.00;96075.63;10466211;28;1374;-79
2023/09/07 07:56:15;;;;;;;;;;;;;;;19.05;100.00;96078.50;10434288;28;1993;-79
2023/09/07 08:01:26;;;;;;;;;;;;;;;19.07;100.00;96070.81;10456055;28;1521;-79
2023/09/07 08:06:44;;;;;;;;;;;;;;;18.80;100.00;96061.84;10478107;28;1322;-78
2023/09/07 08:11:51;;;;;;;;;;;;;;;19.02;100.00;96074.53;10489724;28;1401;-79
2023/09/07 08:16:59;;;;;;;;;;;;;;;19.44;100.00;96061.19;10471409;28;1926;-78
2023/09/07 08:22:08;;;;;;;;;;;;;;;19.37;100.00;96064.38;10481906;28;1436;-79
2023/09/07 08:27:18;;;;;;;;;;;;;;;19.66;100.00;96060.22;10472961;28;2339;-79
2023/09/07 08:32:23;;;;;;;;;;;;;;;19.97;100.00;96065.41;10454916;28;1507;-79
2023/09/07 08:37:36;;;;;;;;;;;;;;;19.92;100.00;96062.88;10481068;28;1990;-80
2023/09/07 08:42:42;;;;;;;;;;;;;;;19.84;100.00;96063.69;10477579;28;5136;-79
2023/09/07 08:47:48;;;;;;;;;;;;;;;19.83;100.00;96054.69;10486988;28;1496;-79
2023/09/07 08:52:54;;;;;;;;;;;;;;;20.54;100.00;96056.00;10446686;28;1216;-79
2023/09/07 08:58:03;;;;;;;;;;;;;;;20.77;100.00;96051.84;10478921;28;2013;-78
2023/09/07 09:03:07;;;;;;;;;;;;;;;21.02;100.00;96050.06;10487194;28;1429;-78
2023/09/07 09:08:12;;;;;;;;;;;;;;;21.12;100.00;96054.31;10455874;28;1235;-79
2023/09/07 09:13:18;;;;;;;;;;;;;;;21.32;100.00;96053.56;10455610;28;1398;-78
2023/09/07 09:18:25;;;;;;;;;;;;;;;21.20;100.00;96054.25;10472096;28;1985;-79
2023/09/07 09:23:36;;;;;;;;;;;;;;;21.29;100.00;96046.00;10476486;28;2366;-78
2023/09/07 09:28:40;;;;;;;;;;;;;;;21.65;100.00;96039.06;10474859;28;1660;-79
2023/09/07 09:33:45;;;;;;;;;;;;;;;21.35;100.00;96046.59;10455652;28;1906;-78
2023/09/07 09:38:53;;;;;;;;;;;;;;;21.53;100.00;96032.44;10476949;28;1265;-77
2023/09/07 09:43:56;;;;;;;;;;;;;;;21.59;100.00;96024.81;10458318;28;5206;-79
2023/09/07 09:49:02;;;;;;;;;;;;;;;21.56;100.00;96030.94;10476336;28;1450;-80
2023/09/07 09:54:08;;;;;;;;;;;;;;;21.85;100.00;96032.72;10454029;28;1902;-80
2023/09/07 09:59:12;;;;;;;;;;;;;;;21.86;100.00;96026.91;10440139;28;1447;-79
2023/09/07 10:04:15;;;;;;;;;;;;;;;22.06;100.00;96033.44;10455366;28;1353;-79
2023/09/07 10:09:27;;;;;;;;;;;;;;;22.10;100.00;96023.44;10467134;28;1256;-79
2023/09/07 10:14:35;;;;;;;;;;;;;;;22.58;100.00;96026.50;10479715;28;1910;-79
2023/09/07 10:19:50;;;;;;;;;;;;;;;22.60;100.00;96025.03;10462704;28;2737;-79
2023/09/07 10:24:55;;;;;;;;;;;;;;;22.41;100.00;96024.81;10471708;28;1036;-79
2023/09/07 10:30:00;;;;;;;;;;;;;;;22.37;100.00;96019.22;10475001;28;1357;-78
2023/09/07 10:35:12;;;;;;;;;;;;;;;22.41;100.00;96021.28;10482127;28;1914;-79
2023/09/07 10:40:15;;;;;;;;;;;;;;;22.57;100.00;96014.75;10470236;28;5219;-78
2023/09/07 10:45:20;;;;;;;;;;;;;;;23.06;100.00;96013.88;10454988;28;1399;-78
2023/09/07 10:50:26;;;;;;;;;;;;;;;22.94;100.00;96009.22;10479067;28;1440;-79
2023/09/07 10:55:39;;;;;;;;;;;;;;;22.95;100.00;96007.28;10465604;28;1891;-79
2023/09/07 11:00:58;;;;;;;;;;;;;;;22.66;100.00;96018.16;10466906;28;992;-78
2023/09/07 11:06:05;;;;;;;;;;;;;;;22.58;100.00;96015.53;10440406;28;1760;-80
2023/09/07 11:11:08;;;;;;;;;;;;;;;22.47;100.00;96015.22;10477137;28;1433;-78
2023/09/07 11:16:13;;;;;;;;;;;;;;;22.80;100.00;96006.03;10470125;28;2288;-79
2023/09/07 11:21:22;;;;;;;;;;;;;;;23.01;100.00;95994.91;10468478;28;1580;-78
2023/09/07 11:26:27;;;;;;;;;;;;;;;23.25;100.00;95996.78;10467774;28;1422;-78
2023/09/07 11:31:36;;;;;;;;;;;;;;;23.34;100.00;96002.88;10476090;28;1318;-77
2023/09/07 11:36:44;;;;;;;;;;;;;;;23.37;100.00;96008.47;10477491;28;1965;-78
2023/09/07 11:41:48;;;;;;;;;;;;;;;22.99;100.00;96003.50;10482571;28;5092;-78
2023/09/07 11:46:56;;;;;;;;;;;;;;;23.00;100.00;95987.84;10479033;28;1508;-79
2023/09/07 11:51:59;;;;;;;;;;;;;;;23.02;100.00;95993.75;10455364;28;1386;-79
2023/09/07 11:57:11;;;;;;;;;;;;;;;23.13;100.00;95987.44;10458061;28;1914;-79
2023/09/07 12:02:17;;;;;;;;;;;;;;;23.38;100.00;95987.34;10479566;28;1318;-79
2023/09/07 12:07:21;;;;;;;;;;;;;;;23.50;100.00;95979.03;10455609;28;1375;-79
2023/09/07 12:12:26;;;;;;;;;;;;;;;23.65;100.00;95986.53;10466508;28;2127;-79
2023/09/07 12:17:30;;;;;;;;;;;;;;;23.92;100.00;95975.81;10475206;28;1910;-77
2023/09/07 12:22:37;;;;;;;;;;;;;;;23.64;100.00;95990.41;10480914;28;1514;-79
2023/09/07 12:27:43;;;;;;;;;;;;;;;23.87;100.00;95976.91;10464043;28;1482;-80
2023/09/07 12:32:56;;;;;;;;;;;;;;;23.93;100.00;95969.19;10484868;28;1355;-78
2023/09/07 12:38:00;;;;;;;;;;;;;;;23.89;100.00;95968.31;10475997;28;1918;-79
2023/09/07 12:43:05;;;;;;;;;;;;;;;24.00;100.00;95952.91;10476224;28;5151;-79
2023/09/07 12:48:15;;;;;;;;;;;;;;;24.28;100.00;95953.56;10474875;28;1393;-79
2023/09/07 12:53:24;;;;;;;;;;;;;;;24.32;100.00;95952.84;10457742;28;1317;-79
2023/09/07 12:58:28;;;;;;;;;;;;;;;24.20;100.00;95956.50;10458431;28;1991;-77
2023/09/07 13:03:38;;;;;;;;;;;;;;;24.08;100.00;95948.38;10471424;28;1440;-79
2023/09/07 13:08:42;;;;;;;;;;;;;;;24.14;100.00;95958.72;10476143;28;2634;-78
2023/09/07 13:13:49;;;;;;;;;;;;;;;24.07;100.00;95955.81;10472296;28;1474;-79
2023/09/07 13:18:54;;;;;;;;;;;;;;;23.97;100.00;95948.09;10457453;28;1914;-78
2023/09/07 13:23:57;;;;;;;;;;;;;;;23.88;100.00;95944.75;10473030;28;1330;-79
2023/09/07 13:29:03;;;;;;;;;;;;;;;24.11;100.00;95940.22;10487526;28;1491;-77
2023/09/07 13:34:11;;;;;;;;;;;;;;;24.09;100.00;95936.22;10486309;28;1427;-79
2023/09/07 13:39:18;;;;;;;;;;;;;;;24.20;100.00;95935.31;10455424;28;1914;-79
2023/09/07 13:44:47;;;;;;;;;;;;;;;24.34;100.00;95940.38;10477307;28;5715;-78
2023/09/07 13:49:51;;;;;;;;;;;;;;;24.33;100.00;95936.00;10467399;28;1384;-79
2023/09/07 13:54:57;;;;;;;;;;;;;;;24.38;100.00;95929.47;10454774;28;1906;-79
2023/09/07 14:00:00;;;;;;;;;;;;;;;24.38;100.00;95924.78;10473977;28;1478;-78
2023/09/07 14:05:06;;;;;;;;;;;;;;;24.41;100.00;95931.50;10470525;28;2342;-79
2023/09/07 14:10:20;;;;;;;;;;;;;;;24.46;100.00;95920.22;10480512;28;1004;-79
2023/09/07 14:15:31;;;;;;;;;;;;;;;24.42;100.00;95924.84;10469340;28;1981;-79
2023/09/07 14:20:36;;;;;;;;;;;;;;;24.55;100.00;95915.31;10492201;28;1373;-79
2023/09/07 14:25:44;;;;;;;;;;;;;;;24.54;100.00;95922.75;10449094;28;1422;-79
2023/09/07 14:30:48;;;;;;;;;;;;;;;24.38;100.00;95932.22;10465897;28;1401;-79
2023/09/07 14:35:54;;;;;;;;;;;;;;;24.47;100.00;95924.56;10470842;28;1975;-79
2023/09/07 14:40:57;;;;;;;;;;;;;;;24.56;100.00;95925.16;10462865;28;5385;-81
2023/09/07 14:46:07;;;;;;;;;;;;;;;24.36;100.00;95923.53;10452990;28;1275;-79
2023/09/07 14:51:14;;;;;;;;;;;;;;;24.42;100.00;95922.88;10463973;28;1592;-78
2023/09/07 14:56:47;;;;;;;;;;;;;;;24.43;100.00;95920.94;10457003;28;1914;-79
2023/09/07 15:01:54;;;;;;;;;;;;;;;24.31;100.00;95934.78;10433761;28;2317;-78
2023/09/07 15:07:07;;;;;;;;;;;;;;;24.38;100.00;95924.78;10467709;28;1678;-79
2023/09/07 15:12:16;;;;;;;;;;;;;;;24.32;100.00;95920.69;10475073;28;1607;-78
2023/09/07 15:17:20;;;;;;;;;;;;;;;24.35;100.00;95913.69;10476150;28;1909;-78
2023/09/07 15:22:27;;;;;;;;;;;;;;;24.35;100.00;95914.50;10480747;28;996;-79
2023/09/07 15:27:32;;;;;;;;;;;;;;;24.10;100.00;95919.38;10472423;28;1381;-79
2023/09/07 15:32:38;;;;;;;;;;;;;;;24.06;100.00;95918.53;10481013;28;1523;-79
2023/09/07 15:37:45;;;;;;;;;;;;;;;24.04;99.55;95920.81;10461307;28;1914;-79
2023/09/07 15:42:48;;;;;;;;;;;;;;;24.08;98.97;95918.94;10477675;28;5105;-78
2023/09/07 15:47:53;;;;;;;;;;;;;;;23.98;100.00;95923.06;10479976;28;1393;-79
2023/09/07 15:52:57;;;;;;;;;;;;;;;23.89;100.00;95913.41;10457755;28;1379;-79
2023/09/07 15:58:04;;;;;;;;;;;;;;;23.86;100.00;95925.91;10443115;28;2324;-78
2023/09/07 16:03:09;;;;;;;;;;;;;;;23.83;100.00;95920.31;10480894;28;1581;-79
2023/09/07 16:08:13;;;;;;;;;;;;;;;23.82;99.62;95918.72;10480750;28;1138;-79
2023/09/07 16:13:25;;;;;;;;;;;;;;;23.67;99.46;95920.31;10477139;28;1452;-80
2023/09/07 16:18:33;;;;;;;;;;;;;;;23.59;99.95;95916.56;10472855;28;1979;-77
2023/09/07 16:23:37;;;;;;;;;;;;;;;23.61;100.00;95924.47;10463428;28;1071;-79
2023/09/07 16:28:41;;;;;;;;;;;;;;;23.48;100.00;95918.25;10486430;28;1366;-79
2023/09/07 16:33:57;;;;;;;;;;;;;;;23.45;100.00;95916.19;10466974;28;1435;-80
2023/09/07 16:39:04;;;;;;;;;;;;;;;23.37;100.00;95922.66;10483546;28;1910;-80
2023/09/07 16:44:08;;;;;;;;;;;;;;;23.29;100.00;95923.63;10467820;28;5322;-79
2023/09/07 16:49:12;;;;;;;;;;;;;;;23.18;100.00;95929.63;10459368;28;1439;-79
2023/09/07 16:54:17;;;;;;;;;;;;;;;23.06;100.00;95921.44;10481113;28;2361;-79
2023/09/07 16:59:21;;;;;;;;;;;;;;;22.94;100.00;95924.25;10471663;28;1971;-79
2023/09/07 17:04:46;;;;;;;;;;;;;;;22.70;100.00;95921.56;10467924;28;1459;-79
2023/09/07 17:09:50;;;;;;;;;;;;;;;22.54;100.00;95922.31;10469633;28;1335;-79
2023/09/07 17:14:56;;;;;;;;;;;;;;;22.42;100.00;95922.31;10475368;28;1334;-79
2023/09/07 17:20:05;;;;;;;;;;;;;;;22.26;100.00;95924.97;10453829;28;1918;-80
2023/09/07 17:25:15;;;;;;;;;;;;;;;22.10;100.00;95930.38;10472321;28;1413;-79
2023/09/07 17:30:20;;;;;;;;;;;;;;;21.88;100.00;95933.53;10438319;28;1294;-80
2023/09/07 17:35:35;;;;;;;;;;;;;;;21.59;100.00;95927.13;10447348;28;1422;-81
2023/09/07 17:40:39;;;;;;;;;;;;;;;21.48;100.00;95923.22;10453631;28;5385;-80
2023/09/07 17:45:43;;;;;;;;;;;;;;;21.37;100.00;95921.28;10468820;28;1032;-81
2023/09/07 17:50:56;;;;;;;;;;;;;;;21.01;100.00;95934.50;10469642;28;2334;-80
2023/09/07 17:56:09;;;;;;;;;;;;;;;20.82;100.00;95931.47;10477178;28;1901;-78
2023/09/07 18:01:16;;;;;;;;;;;;;;;20.62;100.00;95937.75;10487048;28;1177;-79
2023/09/07 18:06:20;;;;;;;;;;;;;;;20.56;100.00;95939.88;10467906;28;1651;-81
2023/09/07 18:11:46;;;;;;;;;;;;;;;20.42;100.00;95948.31;10472904;28;1433;-80
2023/09/07 18:16:54;;;;;;;;;;;;;;;20.35;100.00;95945.28;10473640;28;1906;-79
2023/09/07 18:22:01;;;;;;;;;;;;;;;20.22;100.00;95947.13;10473740;28;964;-79
2023/09/07 18:27:19;;;;;;;;;;;;;;;20.20;100.00;95956.78;10454585;28;1444;-79
2023/09/07 18:32:39;;;;;;;;;;;;;;;20.02;100.00;95952.56;10467543;28;1381;-81
2023/09/07 18:37:50;;;;;;;;;;;;;;;19.82;100.00;95954.91;10431657;28;1953;-80
2023/09/07 18:42:53;;;;;;;;;;;;;;;19.69;100.00;95955.94;10468695;28;5073;-80
2023/09/07 18:47:57;;;;;;;;;;;;;;;19.60;100.00;95947.00;10443940;28;2295;-80
2023/09/07 18:53:05;;;;;;;;;;;;;;;19.66;100.00;95948.41;10478371;28;1205;-79
2023/09/07 18:58:14;;;;;;;;;;;;;;;19.48;100.00;95955.81;10456834;28;1987;-81
2023/09/07 19:03:22;;;;;;;;;;;;;;;19.31;100.00;95951.22;10469884;28;1322;-80
2023/09/07 19:08:26;;;;;;;;;;;;;;;19.13;100.00;95950.44;10471715;28;1059;-80
2023/09/07 19:13:29;;;;;;;;;;;;;;;19.06;100.00;95950.13;10472008;28;1480;-79
2023/09/07 19:18:33;;;;;;;;;;;;;;;18.92;100.00;95959.63;10475409;28;1910;-80
2023/09/07 19:23:37;;;;;;;;;;;;;;;18.76;100.00;95956.56;10499837;28;1059;-79
2023/09/07 19:28:42;;;;;;;;;;;;;;;18.75;100.00;95958.50;10466532;28;1461;-79
2023/09/07 19:33:48;;;;;;;;;;;;;;;18.81;100.00;95948.25;10473728;28;1150;-79
2023/09/07 19:38:54;;;;;;;;;;;;;;;18.78;100.00;95949.69;10461061;28;1985;-78
2023/09/07 19:44:00;;;;;;;;;;;;;;;18.75;100.00;95950.34;10479577;28;5104;-78
2023/09/07 19:49:08;;;;;;;;;;;;;;;18.59;100.00;95954.66;10485982;28;1334;-78
2023/09/07 19:54:14;;;;;;;;;;;;;;;18.56;100.00;95952.53;10475574;28;1358;-80
2023/09/07 19:59:23;;;;;;;;;;;;;;;18.65;100.00;95961.53;10490275;28;1970;-78
2023/09/07 20:04:26;;;;;;;;;;;;;;;18.46;100.00;95964.56;10471390;28;1341;-79
2023/09/07 20:09:30;;;;;;;;;;;;;;;18.26;100.00;95965.19;10478278;28;1104;-79
2023/09/07 20:14:35;;;;;;;;;;;;;;;18.36;100.00;95965.66;10468197;28;1660;-78
2023/09/07 20:19:39;;;;;;;;;;;;;;;18.46;100.00;95961.03;10475992;28;1903;-80
2023/09/07 20:24:49;;;;;;;;;;;;;;;18.34;100.00;95962.47;10485052;28;1043;-79
2023/09/07 20:29:59;;;;;;;;;;;;;;;18.19;100.00;95962.09;10458147;28;1403;-78
2023/09/07 20:35:02;;;;;;;;;;;;;;;18.13;100.00;95956.00;10466175;28;1331;-78
2023/09/07 20:40:12;;;;;;;;;;;;;;;18.11;100.00;95958.25;10496207;28;5112;-77
2023/09/07 20:45:17;;;;;;;;;;;;;;;18.06;100.00;95961.13;10462446;28;1392;-80
2023/09/07 20:50:32;;;;;;;;;;;;;;;18.03;100.00;95954.41;10480390;28;1442;-80
2023/09/07 20:55:39;;;;;;;;;;;;;;;17.88;100.00;95964.91;10472815;28;1097;-79
2023/09/07 21:00:49;;;;;;;;;;;;;;;17.86;100.00;95964.44;10489902;28;1981;-79
2023/09/07 21:06:11;;;;;;;;;;;;;;;17.72;100.00;95964.53;10484529;28;1582;-78
2023/09/07 21:11:16;;;;;;;;;;;;;;;17.52;100.00;95963.16;10486474;28;1397;-81
2023/09/07 21:16:23;;;;;;;;;;;;;;;17.46;100.00;95959.78;10459820;28;1235;-79
2023/09/07 21:21:27;;;;;;;;;;;;;;;17.37;100.00;95955.41;10474814;28;1922;-79
2023/09/07 21:26:34;;;;;;;;;;;;;;;17.15;100.00;95956.25;10478640;28;1583;-80
2023/09/07 21:31:41;;;;;;;;;;;;;;;17.03;100.00;95968.47;10453324;28;1500;-78
2023/09/07 21:36:49;;;;;;;;;;;;;;;16.86;100.00;95964.84;10459133;28;2458;-78
2023/09/07 21:42:00;;;;;;;;;;;;;;;16.80;100.00;95963.38;10458135;28;5148;-80
2023/09/07 21:47:06;;;;;;;;;;;;;;;16.89;100.00;95967.75;10463708;28;1433;-80
2023/09/07 21:52:10;;;;;;;;;;;;;;;17.11;100.00;95966.91;10456720;28;1292;-79
2023/09/07 21:57:14;;;;;;;;;;;;;;;17.09;100.00;95966.44;10474119;28;1993;-79
2023/09/07 22:02:19;;;;;;;;;;;;;;;17.19;100.00;95966.19;10468941;28;1401;-78
2023/09/07 22:07:25;;;;;;;;;;;;;;;17.04;100.00;95952.97;10471931;28;1413;-80
2023/09/07 22:12:37;;;;;;;;;;;;;;;16.89;100.00;95970.47;10484925;28;1226;-80
2023/09/07 22:17:42;;;;;;;;;;;;;;;16.72;100.00;95957.56;10452516;28;1991;-79
2023/09/07 22:22:50;;;;;;;;;;;;;;;16.67;100.00;95954.94;10471604;28;941;-80
2023/09/07 22:27:58;;;;;;;;;;;;;;;16.52;100.00;95952.56;10473268;28;1426;-80
2023/09/07 22:33:05;;;;;;;;;;;;;;;16.60;100.00;95959.97;10476285;28;2336;-79
2023/09/07 22:38:12;;;;;;;;;;;;;;;16.49;100.00;95953.22;10470626;28;1965;-78
2023/09/07 22:43:29;;;;;;;;;;;;;;;16.46;100.00;95954.59;10468218;28;5255;-79
2023/09/07 22:48:37;;;;;;;;;;;;;;;16.44;100.00;95950.59;10450760;28;1556;-78
2023/09/07 22:53:48;;;;;;;;;;;;;;;16.25;100.00;95960.81;10469344;28;1012;-79
2023/09/07 22:58:53;;;;;;;;;;;;;;;16.10;100.00;95953.81;10481919;28;1910;-78
2023/09/07 23:03:59;;;;;;;;;;;;;;;15.94;100.00;95951.41;10471117;28;1370;-79
2023/09/07 23:09:11;;;;;;;;;;;;;;;15.84;100.00;95961.66;10464742;28;1063;-79
2023/09/07 23:14:14;;;;;;;;;;;;;;;15.75;100.00;95969.69;10481630;28;1476;-79
2023/09/07 23:19:24;;;;;;;;;;;;;;;15.69;100.00;95962.75;10475648;28;1895;-80
2023/09/07 23:24:28;;;;;;;;;;;;;;;15.66;100.00;95969.59;10430268;28;1239;-78
2023/09/07 23:29:33;;;;;;;;;;;;;;;15.58;100.00;95972.97;10463306;28;2433;-78
2023/09/07 23:34:37;;;;;;;;;;;;;;;15.52;100.00;95963.31;10481774;28;1636;-78
2023/09/07 23:39:43;;;;;;;;;;;;;;;15.48;100.00;95967.75;10484487;28;2031;-78
2023/09/07 23:44:48;;;;;;;;;;;;;;;15.43;100.00;95959.72;10473322;28;5271;-79
2023/09/07 23:49:55;;;;;;;;;;;;;;;15.40;100.00;95966.53;10443999;28;1354;-79
2023/09/07 23:54:59;;;;;;;;;;;;;;;15.44;100.00;95965.94;10478185;28;1553;-78
